Time;durP1;ratioP1;P1;durP2;ratioP2;P2;SDS_P1;SDS_P2;PMS_P1;PMS_P2;Temp;Humidity;BMP_temperature;BMP_pressure;BME280_temperature;BME280_humidity;BME280_pressure;Samples;Min_cycle;Max_cycle;Signal;HPM_P1;HPM_P2
2021/11/23 00:02:15;;;;;;;1999.90;999.90;;;;;;;;;;5096781;28;20089;-83
2021/11/23 00:04:41;;;;;;;1999.90;999.90;;;;;;;;;;5096464;28;20031;-81
2021/11/23 00:07:07;;;;;;;1999.90;999.90;;;;;;;;;;5096680;28;20053;-81
2021/11/23 00:09:33;;;;;;;1999.90;999.90;;;;;;;;;;5096445;28;20039;-81
2021/11/23 00:11:59;;;;;;;1999.90;999.90;;;;;;;;;;5096694;28;20020;-81
2021/11/23 00:14:25;;;;;;;1999.90;999.90;;;;;;;;;;5097604;28;20471;-82
2021/11/23 00:16:51;;;;;;;1999.90;999.90;;;;;;;;;;5096458;28;20044;-81
2021/11/23 00:19:17;;;;;;;1999.90;999.90;;;;;;;;;;5097597;28;20027;-81
2021/11/23 00:21:43;;;;;;;1999.90;999.90;;;;;;;;;;5097645;28;20099;-81
2021/11/23 00:24:10;;;;;;;1999.90;999.90;;;;;;;;;;5097362;28;20063;-81
2021/11/23 00:26:36;;;;;;;1999.90;999.90;;;;;;;;;;5096513;28;20024;-81
2021/11/23 00:29:02;;;;;;;1999.90;999.90;;;;;;;;;;5096289;28;20494;-80
2021/11/23 00:31:28;;;;;;;1999.90;999.90;;;;;;;;;;5096460;28;20020;-81
2021/11/23 00:33:54;;;;;;;1999.90;999.90;;;;;;;;;;5096065;28;20554;-79
2021/11/23 00:36:20;;;;;;;1999.90;999.90;;;;;;;;;;5095770;28;20054;-81
2021/11/23 00:38:47;;;;;;;1999.90;999.90;;;;;;;;;;5096145;28;20024;-81
2021/11/23 00:41:14;;;;;;;1999.90;999.90;;;;;;;;;;5096020;28;20028;-80
2021/11/23 00:43:40;;;;;;;1999.90;999.90;;;;;;;;;;5096285;28;20031;-81
2021/11/23 00:46:07;;;;;;;1999.90;999.90;;;;;;;;;;5095739;28;20028;-81
2021/11/23 00:48:33;;;;;;;1999.90;999.90;;;;;;;;;;5095991;28;20030;-81
2021/11/23 00:50:59;;;;;;;1999.90;999.90;;;;;;;;;;5095602;28;20027;-81
2021/11/23 00:53:26;;;;;;;1999.90;999.90;;;;;;;;;;5095792;28;20078;-82
2021/11/23 00:55:52;;;;;;;1999.90;999.90;;;;;;;;;;5095502;28;20059;-82
2021/11/23 00:58:18;;;;;;;1999.90;999.90;;;;;;;;;;5095872;28;20024;-81
2021/11/23 01:00:44;;;;;;;1999.90;999.90;;;;;;;;;;5095677;28;20055;-81
2021/11/23 01:03:12;;;;;;;1999.90;999.90;;;;;;;;;;5095812;28;20074;-81
2021/11/23 01:05:38;;;;;;;1999.90;999.90;;;;;;;;;;5095681;28;20031;-81
2021/11/23 01:08:05;;;;;;;1999.90;999.90;;;;;;;;;;5095752;28;20085;-81
2021/11/23 01:10:31;;;;;;;1999.90;999.90;;;;;;;;;;5095019;28;20055;-81
2021/11/23 01:12:57;;;;;;;1999.90;999.90;;;;;;;;;;5095373;28;20168;-81
2021/11/23 01:15:23;;;;;;;1999.90;999.90;;;;;;;;;;5096171;28;20055;-81
2021/11/23 01:17:49;;;;;;;1999.90;999.90;;;;;;;;;;5095519;28;20028;-80
2021/11/23 01:20:15;;;;;;;1999.90;999.90;;;;;;;;;;5095195;28;20422;-80
2021/11/23 01:22:42;;;;;;;1999.90;999.90;;;;;;;;;;5094845;28;20028;-81
2021/11/23 01:25:09;;;;;;;1999.90;999.90;;;;;;;;;;5094985;28;20012;-81
2021/11/23 01:27:35;;;;;;;1999.90;999.90;;;;;;;;;;5095046;28;20088;-82
2021/11/23 01:30:01;;;;;;;1999.90;999.90;;;;;;;;;;5094906;28;20035;-81
2021/11/23 01:32:27;;;;;;;1999.90;999.90;;;;;;;;;;5094930;28;20024;-80
2021/11/23 01:34:54;;;;;;;1999.90;999.90;;;;;;;;;;5096218;28;20098;-81
2021/11/23 01:37:20;;;;;;;1999.90;999.90;;;;;;;;;;5094912;28;20081;-81
2021/11/23 01:39:46;;;;;;;1999.90;999.90;;;;;;;;;;5094938;28;20126;-81
2021/11/23 01:42:12;;;;;;;1999.90;999.90;;;;;;;;;;5094979;28;20386;-81
2021/11/23 01:44:38;;;;;;;1999.90;999.90;;;;;;;;;;5094670;28;20032;-81
2021/11/23 01:47:04;;;;;;;1999.90;999.90;;;;;;;;;;5095914;28;20024;-81
2021/11/23 01:49:30;;;;;;;1999.90;999.90;;;;;;;;;;5094348;28;20496;-82
2021/11/23 01:51:56;;;;;;;1999.90;999.90;;;;;;;;;;5095970;28;20028;-81
2021/11/23 01:54:22;;;;;;;1999.90;999.90;;;;;;;;;;5096098;28;20027;-83
2021/11/23 01:56:48;;;;;;;1999.90;999.90;;;;;;;;;;5094517;28;20028;-81
2021/11/23 01:59:14;;;;;;;1999.90;999.90;;;;;;;;;;5094740;28;20027;-81
2021/11/23 02:01:40;;;;;;;1999.90;999.90;;;;;;;;;;5094336;28;20047;-81
2021/11/23 02:04:07;;;;;;;1999.90;999.90;;;;;;;;;;5094539;28;20043;-82
2021/11/23 02:06:34;;;;;;;1999.90;999.90;;;;;;;;;;5094723;28;20028;-82
2021/11/23 02:09:00;;;;;;;1999.90;999.90;;;;;;;;;;5094320;28;20097;-81
2021/11/23 02:11:26;;;;;;;1999.90;999.90;;;;;;;;;;5094329;28;20028;-81
2021/11/23 02:13:53;;;;;;;1999.90;999.90;;;;;;;;;;5095197;28;20023;-81
2021/11/23 02:16:19;;;;;;;1999.90;999.90;;;;;;;;;;5094059;28;20376;-81
2021/11/23 02:18:45;;;;;;;1999.90;999.90;;;;;;;;;;5094035;28;20032;-83
2021/11/23 02:21:11;;;;;;;1999.90;999.90;;;;;;;;;;5093278;28;20054;-80
2021/11/23 02:23:37;;;;;;;1999.90;999.90;;;;;;;;;;5094007;28;20021;-82
2021/11/23 02:26:03;;;;;;;1999.90;999.90;;;;;;;;;;5093860;28;20016;-80
2021/11/23 02:28:29;;;;;;;1999.90;999.90;;;;;;;;;;5095290;28;20020;-80
2021/11/23 02:30:57;;;;;;;1999.90;999.90;;;;;;;;;;5093850;28;20023;-81
2021/11/23 02:33:24;;;;;;;1999.90;999.90;;;;;;;;;;5093897;28;20020;-82
2021/11/23 02:35:51;;;;;;;1999.90;999.90;;;;;;;;;;5093745;28;20043;-83
2021/11/23 02:38:22;;;;;;;1999.90;999.90;;;;;;;;;;5094925;28;20020;-82
2021/11/23 02:40:48;;;;;;;1999.90;999.90;;;;;;;;;;5093830;28;20023;-81
2021/11/23 02:43:15;;;;;;;1999.90;999.90;;;;;;;;;;5093837;28;20020;-82
2021/11/23 02:45:41;;;;;;;1999.90;999.90;;;;;;;;;;5093652;28;20020;-81
2021/11/23 02:48:10;;;;;;;1999.90;999.90;;;;;;;;;;5093622;28;20467;-81
2021/11/23 02:50:37;;;;;;;1999.90;999.90;;;;;;;;;;5094732;28;20103;-80
2021/11/23 02:53:03;;;;;;;1999.90;999.90;;;;;;;;;;5093911;28;20387;-81
2021/11/23 02:55:33;;;;;;;1999.90;999.90;;;;;;;;;;5093029;28;20114;-81
2021/11/23 02:57:59;;;;;;;1999.90;999.90;;;;;;;;;;5093683;28;20028;-81
2021/11/23 03:00:26;;;;;;;1999.90;999.90;;;;;;;;;;5093461;28;20115;-82
2021/11/23 03:02:54;;;;;;;1999.90;999.90;;;;;;;;;;5093340;28;20051;-80
2021/11/23 03:05:21;;;;;;;1999.90;999.90;;;;;;;;;;5092986;28;20871;-82
2021/11/23 03:07:47;;;;;;;1999.90;999.90;;;;;;;;;;5094199;28;20217;-84
2021/11/23 03:10:13;;;;;;;1999.90;999.90;;;;;;;;;;5093244;28;20061;-82
2021/11/23 03:12:40;;;;;;;1999.90;999.90;;;;;;;;;;5093143;28;20020;-81
2021/11/23 03:15:07;;;;;;;1999.90;999.90;;;;;;;;;;5094198;28;20609;-81
2021/11/23 03:17:34;;;;;;;1999.90;999.90;;;;;;;;;;5093119;28;20119;-83
2021/11/23 03:20:00;;;;;;;1999.90;999.90;;;;;;;;;;5092995;28;20417;-84
2021/11/23 03:22:26;;;;;;;1999.90;999.90;;;;;;;;;;5094388;28;20101;-81
2021/11/23 03:24:52;;;;;;;1999.90;999.90;;;;;;;;;;5094135;28;20031;-82
2021/11/23 03:27:18;;;;;;;1999.90;999.90;;;;;;;;;;5092945;28;20455;-82
2021/11/23 03:29:44;;;;;;;1999.90;999.90;;;;;;;;;;5092842;28;20119;-83
2021/11/23 03:32:11;;;;;;;1999.90;999.90;;;;;;;;;;5092542;28;20027;-81
2021/11/23 03:34:39;;;;;;;1999.90;999.90;;;;;;;;;;5092807;28;20494;-82
2021/11/23 03:37:06;;;;;;;1999.90;999.90;;;;;;;;;;5093236;28;20470;-81
2021/11/23 03:39:33;;;;;;;1999.90;999.90;;;;;;;;;;5092717;28;20020;-81
2021/11/23 03:41:59;;;;;;;1999.90;999.90;;;;;;;;;;5093176;28;20024;-82
2021/11/23 03:44:25;;;;;;;1999.90;999.90;;;;;;;;;;5092513;28;20028;-81
2021/11/23 03:46:52;;;;;;;1999.90;999.90;;;;;;;;;;5092387;28;20016;-82
2021/11/23 03:49:18;;;;;;;1999.90;999.90;;;;;;;;;;5092881;28;20058;-82
2021/11/23 03:51:44;;;;;;;1999.90;999.90;;;;;;;;;;5099655;28;20028;-83
2021/11/23 03:54:10;;;;;;;1999.90;999.90;;;;;;;;;;5098874;28;20039;-82
2021/11/23 03:56:36;;;;;;;1999.90;999.90;;;;;;;;;;5096884;28;20028;-84
2021/11/23 03:59:02;;;;;;;1999.90;999.90;;;;;;;;;;5093318;28;20031;-83
2021/11/23 04:01:28;;;;;;;1999.90;999.90;;;;;;;;;;5092557;28;20545;-84
2021/11/23 04:03:54;;;;;;;1999.90;999.90;;;;;;;;;;5092400;28;20020;-83
2021/11/23 04:06:20;;;;;;;1999.90;999.90;;;;;;;;;;5093638;28;20039;-81
2021/11/23 04:08:46;;;;;;;1999.90;999.90;;;;;;;;;;5092516;28;20024;-82
2021/11/23 04:11:12;;;;;;;1999.90;999.90;;;;;;;;;;5092984;28;20028;-83
2021/11/23 04:13:40;;;;;;;1999.90;999.90;;;;;;;;;;5092324;28;20029;-82
2021/11/23 04:16:06;;;;;;;1999.90;999.90;;;;;;;;;;5092368;28;20064;-83
2021/11/23 04:18:32;;;;;;;1999.90;999.90;;;;;;;;;;5092353;28;20035;-81
2021/11/23 04:20:58;;;;;;;1999.90;999.90;;;;;;;;;;5093656;28;20028;-81
2021/11/23 04:23:24;;;;;;;1999.90;999.90;;;;;;;;;;5092441;28;20023;-82
2021/11/23 04:25:50;;;;;;;1999.90;999.90;;;;;;;;;;5093875;28;20030;-81
2021/11/23 04:28:17;;;;;;;1999.90;999.90;;;;;;;;;;5092561;28;20115;-82
2021/11/23 04:30:43;;;;;;;1999.90;999.90;;;;;;;;;;5092684;28;20071;-81
2021/11/23 04:33:13;;;;;;;1999.90;999.90;;;;;;;;;;5092600;28;20115;-82
2021/11/23 04:35:39;;;;;;;1999.90;999.90;;;;;;;;;;5092327;28;20032;-81
2021/11/23 04:38:05;;;;;;;1999.90;999.90;;;;;;;;;;5092055;28;20024;-82
2021/11/23 04:40:31;;;;;;;1999.90;999.90;;;;;;;;;;5093529;28;20068;-83
2021/11/23 04:42:57;;;;;;;1999.90;999.90;;;;;;;;;;5092441;28;20024;-82
2021/11/23 04:45:23;;;;;;;1999.90;999.90;;;;;;;;;;5095129;28;20495;-83
2021/11/23 04:47:49;;;;;;;1999.90;999.90;;;;;;;;;;5096415;28;20031;-82
2021/11/23 04:50:15;;;;;;;1999.90;999.90;;;;;;;;;;5096512;28;20028;-83
2021/11/23 04:52:42;;;;;;;1999.90;999.90;;;;;;;;;;5096348;28;20382;-81
2021/11/23 04:55:08;;;;;;;1999.90;999.90;;;;;;;;;;5096125;28;20433;-80
2021/11/23 04:57:34;;;;;;;1999.90;999.90;;;;;;;;;;5095975;28;20128;-81
2021/11/23 05:00:01;;;;;;;1999.90;999.90;;;;;;;;;;5097242;28;20031;-82
2021/11/23 05:02:27;;;;;;;1999.90;999.90;;;;;;;;;;5097094;28;20048;-81
2021/11/23 05:04:53;;;;;;;1999.90;999.90;;;;;;;;;;5095978;28;20468;-83
2021/11/23 05:07:19;;;;;;;1999.90;999.90;;;;;;;;;;5097269;28;20535;-81
2021/11/23 05:09:45;;;;;;;1999.90;999.90;;;;;;;;;;5096849;28;20063;-81
2021/11/23 05:12:11;;;;;;;1999.90;999.90;;;;;;;;;;5095957;28;20051;-82
2021/11/23 05:14:37;;;;;;;1999.90;999.90;;;;;;;;;;5096881;28;20068;-81
2021/11/23 05:17:03;;;;;;;1999.90;999.90;;;;;;;;;;5095733;28;20024;-82
2021/11/23 05:19:29;;;;;;;1999.90;999.90;;;;;;;;;;5096897;28;20475;-81
2021/11/23 05:21:55;;;;;;;1999.90;999.90;;;;;;;;;;5095733;28;20024;-83
2021/11/23 05:24:21;;;;;;;1999.90;999.90;;;;;;;;;;5095344;28;20028;-82
2021/11/23 05:26:47;;;;;;;1999.90;999.90;;;;;;;;;;5096689;28;20138;-83
2021/11/23 05:29:14;;;;;;;1999.90;999.90;;;;;;;;;;5096462;28;20059;-84
2021/11/23 05:31:40;;;;;;;1999.90;999.90;;;;;;;;;;5095677;28;20020;-82
2021/11/23 05:34:06;;;;;;;1999.90;999.90;;;;;;;;;;5096840;28;20028;-82
2021/11/23 05:36:32;;;;;;;1999.90;999.90;;;;;;;;;;5095460;28;20023;-82
2021/11/23 05:38:59;;;;;;;1999.90;999.90;;;;;;;;;;5096721;28;20024;-83
2021/11/23 05:41:25;;;;;;;1999.90;999.90;;;;;;;;;;5095708;28;20020;-86
2021/11/23 05:43:51;;;;;;;1999.90;999.90;;;;;;;;;;5095665;28;20399;-82
2021/11/23 05:46:17;;;;;;;1999.90;999.90;;;;;;;;;;5095227;28;20455;-80
2021/11/23 05:48:43;;;;;;;1999.90;999.90;;;;;;;;;;5095114;28;20029;-84
2021/11/23 05:51:09;;;;;;;1999.90;999.90;;;;;;;;;;5095479;28;20121;-83
2021/11/23 05:53:36;;;;;;;1999.90;999.90;;;;;;;;;;5095147;28;20036;-82
2021/11/23 05:56:03;;;;;;;1999.90;999.90;;;;;;;;;;5095162;28;20381;-83
2021/11/23 05:58:29;;;;;;;1999.90;999.90;;;;;;;;;;5095036;28;20078;-84
2021/11/23 06:00:55;;;;;;;1999.90;999.90;;;;;;;;;;5095037;28;20028;-81
2021/11/23 06:03:22;;;;;;;1999.90;999.90;;;;;;;;;;5095358;28;20086;-82
2021/11/23 06:05:48;;;;;;;1999.90;999.90;;;;;;;;;;5094789;28;20027;-82
2021/11/23 06:08:14;;;;;;;1999.90;999.90;;;;;;;;;;5095080;28;20046;-82
2021/11/23 06:10:41;;;;;;;1999.90;999.90;;;;;;;;;;5094707;28;20077;-82
2021/11/23 06:13:07;;;;;;;1999.90;999.90;;;;;;;;;;5094665;28;20372;-82
2021/11/23 06:15:34;;;;;;;1999.90;999.90;;;;;;;;;;5094695;28;20043;-84
2021/11/23 06:18:03;;;;;;;1999.90;999.90;;;;;;;;;;5094555;28;20035;-82
2021/11/23 06:20:29;;;;;;;1999.90;999.90;;;;;;;;;;5094530;28;20479;-81
2021/11/23 06:22:59;;;;;;;1999.90;999.90;;;;;;;;;;5094415;28;20060;-81
2021/11/23 06:25:26;;;;;;;1999.90;999.90;;;;;;;;;;5094237;28;20028;-80
2021/11/23 06:27:52;;;;;;;1999.90;999.90;;;;;;;;;;5095699;28;20020;-83
2021/11/23 06:30:18;;;;;;;1999.90;999.90;;;;;;;;;;5094282;28;20034;-81
2021/11/23 06:32:45;;;;;;;1999.90;999.90;;;;;;;;;;5094743;28;20024;-82
2021/11/23 06:35:11;;;;;;;1999.90;999.90;;;;;;;;;;5094197;28;20028;-82
2021/11/23 06:37:37;;;;;;;1999.90;999.90;;;;;;;;;;5108429;28;20027;-84
2021/11/23 06:40:08;;;;;;;1999.90;999.90;;;;;;;;;;5114922;28;20032;-87
2021/11/23 06:42:34;;;;;;;1999.90;999.90;;;;;;;;;;5117396;28;20038;-82
2021/11/23 06:45:00;;;;;;;1999.90;999.90;;;;;;;;;;5117739;28;20039;-81
2021/11/23 06:47:26;;;;;;;1999.90;999.90;;;;;;;;;;5115456;28;20023;-82
2021/11/23 06:49:53;;;;;;;1999.90;999.90;;;;;;;;;;5114058;28;20028;-76
2021/11/23 06:52:20;;;;;;;1999.90;999.90;;;;;;;;;;5115407;28;20020;-80
2021/11/23 06:54:46;;;;;;;1999.90;999.90;;;;;;;;;;5114365;28;20043;-81
2021/11/23 06:57:12;;;;;;;1999.90;999.90;;;;;;;;;;5115553;28;20024;-79
2021/11/23 06:59:39;;;;;;;1999.90;999.90;;;;;;;;;;5113939;28;20600;-82
2021/11/23 07:02:06;;;;;;;1999.90;999.90;;;;;;;;;;5113852;28;20513;-81
2021/11/23 07:04:33;;;;;;;1999.90;999.90;;;;;;;;;;5114092;28;20035;-84
2021/11/23 07:06:59;;;;;;;1999.90;999.90;;;;;;;;;;5113670;28;20466;-81
2021/11/23 07:09:25;;;;;;;1999.90;999.90;;;;;;;;;;5115141;28;20378;-82
2021/11/23 07:11:52;;;;;;;1999.90;999.90;;;;;;;;;;5114200;28;20378;-84
2021/11/23 07:14:18;;;;;;;1999.90;999.90;;;;;;;;;;5114351;28;20031;-83
2021/11/23 07:16:45;;;;;;;1999.90;999.90;;;;;;;;;;5113634;28;20498;-81
2021/11/23 07:19:11;;;;;;;1999.90;999.90;;;;;;;;;;5114990;28;20024;-83
2021/11/23 07:21:37;;;;;;;1999.90;999.90;;;;;;;;;;5115109;28;20055;-82
2021/11/23 07:24:03;;;;;;;1999.90;999.90;;;;;;;;;;5113915;28;20042;-82
2021/11/23 07:26:30;;;;;;;1999.90;999.90;;;;;;;;;;5114267;28;20072;-86
2021/11/23 07:28:57;;;;;;;1999.90;999.90;;;;;;;;;;5113954;28;20064;-81
2021/11/23 07:31:23;;;;;;;1999.90;999.90;;;;;;;;;;5113910;28;20024;-83
2021/11/23 07:33:49;;;;;;;1999.90;999.90;;;;;;;;;;5114100;28;20489;-84
2021/11/23 07:36:17;;;;;;;1999.90;999.90;;;;;;;;;;5114650;28;20035;-83
2021/11/23 07:38:44;;;;;;;1999.90;999.90;;;;;;;;;;5113707;28;20084;-82
2021/11/23 07:41:10;;;;;;;1999.90;999.90;;;;;;;;;;5113769;28;20043;-83
2021/11/23 07:43:36;;;;;;;1999.90;999.90;;;;;;;;;;5115705;28;20573;-85
2021/11/23 07:46:02;;;;;;;1999.90;999.90;;;;;;;;;;5114240;28;20080;-88
2021/11/23 07:48:28;;;;;;;1999.90;999.90;;;;;;;;;;5114419;28;20080;-86
2021/11/23 07:50:54;;;;;;;1999.90;999.90;;;;;;;;;;5114768;28;20063;-86
2021/11/23 07:53:20;;;;;;;1999.90;999.90;;;;;;;;;;5114131;28;20122;-82
2021/11/23 07:55:49;;;;;;;1999.90;999.90;;;;;;;;;;5113653;28;20105;-83
2021/11/23 07:58:18;;;;;;;1999.90;999.90;;;;;;;;;;5114070;28;20478;-82
2021/11/23 08:00:45;;;;;;;1999.90;999.90;;;;;;;;;;5114283;28;20050;-83
2021/11/23 08:03:12;;;;;;;1999.90;999.90;;;;;;;;;;5113643;28;20043;-82
2021/11/23 08:05:38;;;;;;;1999.90;999.90;;;;;;;;;;5113643;28;20470;-82
2021/11/23 08:08:05;;;;;;;1999.90;999.90;;;;;;;;;;5114804;28;20028;-80
2021/11/23 08:10:31;;;;;;;1999.90;999.90;;;;;;;;;;5113443;28;20059;-80
2021/11/23 08:12:57;;;;;;;1999.90;999.90;;;;;;;;;;5114781;28;20083;-85
2021/11/23 08:15:23;;;;;;;1999.90;999.90;;;;;;;;;;5114433;28;20059;-81
2021/11/23 08:17:51;;;;;;;1999.90;999.90;;;;;;;;;;5123107;28;20037;-82
2021/11/23 08:20:17;;;;;;;1999.90;999.90;;;;;;;;;;5125285;28;20081;-81
2021/11/23 08:22:43;;;;;;;1999.90;999.90;;;;;;;;;;5120671;28;20026;-82
2021/11/23 08:25:09;;;;;;;1999.90;999.90;;;;;;;;;;5118153;28;20031;-84
2021/11/23 08:27:36;;;;;;;1999.90;999.90;;;;;;;;;;5117322;28;20022;-85
2021/11/23 08:30:03;;;;;;;1999.90;999.90;;;;;;;;;;5117556;28;20085;-82
2021/11/23 08:32:29;;;;;;;1999.90;999.90;;;;;;;;;;5117756;28;20026;-84
2021/11/23 08:34:55;;;;;;;1999.90;999.90;;;;;;;;;;5117193;28;20032;-83
2021/11/23 08:37:21;;;;;;;1999.90;999.90;;;;;;;;;;5119311;28;20095;-85
2021/11/23 08:39:47;;;;;;;1999.90;999.90;;;;;;;;;;5119707;28;20440;-83
2021/11/23 08:42:17;;;;;;;1999.90;999.90;;;;;;;;;;5117343;28;20051;-85
2021/11/23 08:44:44;;;;;;;1999.90;999.90;;;;;;;;;;5117887;28;20517;-85
2021/11/23 08:47:10;;;;;;;1999.90;999.90;;;;;;;;;;5117862;28;20016;-82
2021/11/23 08:49:36;;;;;;;1999.90;999.90;;;;;;;;;;5117107;28;20028;-84
2021/11/23 08:52:02;;;;;;;1999.90;999.90;;;;;;;;;;5116908;28;20497;-86
2021/11/23 08:54:29;;;;;;;1999.90;999.90;;;;;;;;;;5117446;28;20028;-83
2021/11/23 08:57:04;;;;;;;1999.90;999.90;;;;;;;;;;5117201;28;20032;-86
2021/11/23 08:59:33;;;;;;;1999.90;999.90;;;;;;;;;;5116676;28;20019;-83
2021/11/23 09:02:00;;;;;;;1999.90;999.90;;;;;;;;;;5116658;28;20414;-84
2021/11/23 09:04:26;;;;;;;1999.90;999.90;;;;;;;;;;5116422;28;20027;-84
2021/11/23 09:06:52;;;;;;;1999.90;999.90;;;;;;;;;;5116549;28;20050;-85
2021/11/23 09:09:23;;;;;;;1999.90;999.90;;;;;;;;;;5117738;28;20471;-81
2021/11/23 09:11:50;;;;;;;1999.90;999.90;;;;;;;;;;5116137;28;20474;-83
2021/11/23 09:14:16;;;;;;;1999.90;999.90;;;;;;;;;;5120085;28;20424;-84
2021/11/23 09:16:42;;;;;;;1999.90;999.90;;;;;;;;;;5117649;28;20031;-82
2021/11/23 09:19:08;;;;;;;1999.90;999.90;;;;;;;;;;5116884;28;20505;-86
2021/11/23 09:21:36;;;;;;;1999.90;999.90;;;;;;;;;;5118570;28;20088;-84
2021/11/23 09:24:02;;;;;;;1999.90;999.90;;;;;;;;;;5118125;28;20114;-85
2021/11/23 09:26:29;;;;;;;1999.90;999.90;;;;;;;;;;5116554;28;20031;-86
2021/11/23 09:28:55;;;;;;;1999.90;999.90;;;;;;;;;;5116845;28;20023;-81
2021/11/23 09:31:22;;;;;;;1999.90;999.90;;;;;;;;;;5117321;28;20046;-87
2021/11/23 09:33:48;;;;;;;1999.90;999.90;;;;;;;;;;5116774;28;20008;-84
2021/11/23 09:36:14;;;;;;;1999.90;999.90;;;;;;;;;;5115922;28;20418;-85
2021/11/23 09:38:41;;;;;;;1999.90;999.90;;;;;;;;;;5115930;28;20058;-84
2021/11/23 09:41:07;;;;;;;1999.90;999.90;;;;;;;;;;5116058;28;20023;-86
2021/11/23 09:43:34;;;;;;;1999.90;999.90;;;;;;;;;;5116213;28;20398;-85
2021/11/23 09:46:00;;;;;;;1999.90;999.90;;;;;;;;;;5116502;28;20016;-82
2021/11/23 09:48:27;;;;;;;1999.90;999.90;;;;;;;;;;5115512;28;20027;-83
2021/11/23 09:50:53;;;;;;;1999.90;999.90;;;;;;;;;;5115575;28;20024;-83
2021/11/23 09:53:20;;;;;;;1999.90;999.90;;;;;;;;;;5116188;28;20031;-84
2021/11/23 09:55:47;;;;;;;1999.90;999.90;;;;;;;;;;5115464;28;20046;-84
2021/11/23 09:58:14;;;;;;;1999.90;999.90;;;;;;;;;;5115786;28;20020;-86
2021/11/23 10:00:42;;;;;;;1999.90;999.90;;;;;;;;;;5115489;28;20040;-84
2021/11/23 10:03:13;;;;;;;1999.90;999.90;;;;;;;;;;5115587;28;20063;-84
2021/11/23 10:05:40;;;;;;;1999.90;999.90;;;;;;;;;;5115848;28;20131;-86
2021/11/23 10:08:12;;;;;;;1999.90;999.90;;;;;;;;;;5115441;28;20043;-85
2021/11/23 10:10:50;;;;;;;1999.90;999.90;;;;;;;;;;5115785;28;20027;-84
2021/11/23 10:13:16;;;;;;;1999.90;999.90;;;;;;;;;;5116025;28;20031;-86
2021/11/23 10:15:46;;;;;;;1999.90;999.90;;;;;;;;;;5115101;28;20531;-83
2021/11/23 10:18:23;;;;;;;1999.90;999.90;;;;;;;;;;5115424;28;20485;-84
2021/11/23 10:20:51;;;;;;;1999.90;999.90;;;;;;;;;;5115368;28;20027;-85
2021/11/23 10:23:19;;;;;;;1999.90;999.90;;;;;;;;;;5116166;28;20458;-87
2021/11/23 10:25:47;;;;;;;1999.90;999.90;;;;;;;;;;5115816;28;20110;-84
2021/11/23 10:28:13;;;;;;;1999.90;999.90;;;;;;;;;;5116268;28;20024;-87
2021/11/23 10:30:41;;;;;;;1999.90;999.90;;;;;;;;;;5115424;28;20050;-87
2021/11/23 10:33:08;;;;;;;1999.90;999.90;;;;;;;;;;5115413;28;20527;-85
2021/11/23 10:35:37;;;;;;;1999.90;999.90;;;;;;;;;;5115330;28;20039;-84
2021/11/23 10:38:04;;;;;;;1999.90;999.90;;;;;;;;;;5116324;28;20020;-89
2021/11/23 10:40:31;;;;;;;1999.90;999.90;;;;;;;;;;5114987;28;20024;-86
2021/11/23 10:43:03;;;;;;;1999.90;999.90;;;;;;;;;;5122671;28;20019;-86
2021/11/23 10:45:35;;;;;;;1999.90;999.90;;;;;;;;;;5114671;28;20019;-85
2021/11/23 10:48:03;;;;;;;1999.90;999.90;;;;;;;;;;5115338;28;20027;-86
2021/11/23 10:50:29;;;;;;;1999.90;999.90;;;;;;;;;;5115641;28;20023;-85
2021/11/23 10:53:02;;;;;;;1999.90;999.90;;;;;;;;;;5115603;28;20023;-85
2021/11/23 10:55:31;;;;;;;1999.90;999.90;;;;;;;;;;5116525;28;20035;-86
2021/11/23 10:57:59;;;;;;;1999.90;999.90;;;;;;;;;;5114664;28;20110;-83
2021/11/23 11:00:28;;;;;;;1999.90;999.90;;;;;;;;;;5114465;28;20071;-86
2021/11/23 11:02:59;;;;;;;1999.90;999.90;;;;;;;;;;5114906;28;20426;-88
2021/11/23 11:05:25;;;;;;;1999.90;999.90;;;;;;;;;;5115235;28;20024;-86
2021/11/23 11:07:54;;;;;;;1999.90;999.90;;;;;;;;;;5115201;28;20459;-84
2021/11/23 11:10:20;;;;;;;1999.90;999.90;;;;;;;;;;5115415;28;20023;-84
2021/11/23 11:12:46;;;;;;;1999.90;999.90;;;;;;;;;;5114977;28;20074;-84
2021/11/23 11:15:14;;;;;;;1999.90;999.90;;;;;;;;;;5114075;28;20036;-86
2021/11/23 11:17:40;;;;;;;1999.90;999.90;;;;;;;;;;5114066;28;20064;-83
2021/11/23 11:20:09;;;;;;;1999.90;999.90;;;;;;;;;;5114097;28;20055;-83
2021/11/23 11:22:35;;;;;;;1999.90;999.90;;;;;;;;;;5114015;28;20494;-82
2021/11/23 11:27:36;;;;;;;1999.90;999.90;;;;;;;;;;5115118;28;20501;-84
2021/11/23 11:30:21;;;;;;;1999.90;999.90;;;;;;;;;;5113899;28;20031;-85
2021/11/23 11:32:49;;;;;;;1999.90;999.90;;;;;;;;;;5113340;28;20484;-84
2021/11/23 11:35:26;;;;;;;1999.90;999.90;;;;;;;;;;5112980;28;20498;-82
2021/11/23 11:37:59;;;;;;;1999.90;999.90;;;;;;;;;;5113721;28;20164;-83
2021/11/23 11:40:25;;;;;;;1999.90;999.90;;;;;;;;;;5113333;28;20023;-83
2021/11/23 11:42:53;;;;;;;1999.90;999.90;;;;;;;;;;5113545;28;20020;-82
2021/11/23 11:45:21;;;;;;;1999.90;999.90;;;;;;;;;;5112035;28;20483;-82
2021/11/23 11:47:48;;;;;;;1999.90;999.90;;;;;;;;;;5111848;28;20106;-81
2021/11/23 11:50:19;;;;;;;1999.90;999.90;;;;;;;;;;5111648;28;20038;-82
2021/11/23 11:52:58;;;;;;;1999.90;999.90;;;;;;;;;;5111450;28;20023;-80
2021/11/23 11:55:25;;;;;;;1999.90;999.90;;;;;;;;;;5111761;28;20036;-83
2021/11/23 11:57:51;;;;;;;1999.90;999.90;;;;;;;;;;5112550;28;20135;-85
2021/11/23 12:00:24;;;;;;;1999.90;999.90;;;;;;;;;;5112509;28;20440;-84
2021/11/23 12:02:50;;;;;;;1999.90;999.90;;;;;;;;;;5112779;28;20062;-83
2021/11/23 12:05:17;;;;;;;1999.90;999.90;;;;;;;;;;5113540;28;20023;-86
2021/11/23 12:07:44;;;;;;;1999.90;999.90;;;;;;;;;;5114330;28;20020;-87
2021/11/23 12:10:18;;;;;;;1999.90;999.90;;;;;;;;;;5112947;28;20015;-88
2021/11/23 12:12:51;;;;;;;1999.90;999.90;;;;;;;;;;5113570;28;20470;-84
2021/11/23 12:15:36;;;;;;;1999.90;999.90;;;;;;;;;;5115082;28;20032;-86
2021/11/23 12:18:21;;;;;;;1999.90;999.90;;;;;;;;;;5115925;28;20076;-85
2021/11/23 12:20:50;;;;;;;1999.90;999.90;;;;;;;;;;5115621;28;20395;-84
2021/11/23 12:23:19;;;;;;;1999.90;999.90;;;;;;;;;;5114080;28;20024;-86
2021/11/23 12:25:52;;;;;;;1999.90;999.90;;;;;;;;;;5113714;28;20016;-86
2021/11/23 12:28:19;;;;;;;1999.90;999.90;;;;;;;;;;5113574;28;20020;-87
2021/11/23 12:30:45;;;;;;;1999.90;999.90;;;;;;;;;;5114878;28;20024;-84
2021/11/23 12:33:11;;;;;;;1999.90;999.90;;;;;;;;;;5113698;28;20141;-87
2021/11/23 12:35:38;;;;;;;1999.90;999.90;;;;;;;;;;5113380;28;20068;-86
2021/11/23 12:38:05;;;;;;;1999.90;999.90;;;;;;;;;;5113427;28;20118;-86
2021/11/23 12:40:31;;;;;;;1999.90;999.90;;;;;;;;;;5113252;28;20024;-86
2021/11/23 12:43:01;;;;;;;1999.90;999.90;;;;;;;;;;5113112;28;20528;-86
2021/11/23 12:45:33;;;;;;;1999.90;999.90;;;;;;;;;;5112539;28;20360;-84
2021/11/23 12:48:00;;;;;;;1999.90;999.90;;;;;;;;;;5112865;28;20023;-84
2021/11/23 12:50:29;;;;;;;1999.90;999.90;;;;;;;;;;5113062;28;20032;-87
2021/11/23 12:53:15;;;;;;;1999.90;999.90;;;;;;;;;;5113249;28;20114;-81
2021/11/23 12:55:41;;;;;;;1999.90;999.90;;;;;;;;;;5111746;28;20036;-81
2021/11/23 12:58:09;;;;;;;1999.90;999.90;;;;;;;;;;5114214;28;20024;-86
2021/11/23 13:00:39;;;;;;;1999.90;999.90;;;;;;;;;;5113514;28;20028;-84
2021/11/23 13:03:07;;;;;;;1999.90;999.90;;;;;;;;;;5113272;28;20138;-86
2021/11/23 13:05:35;;;;;;;1999.90;999.90;;;;;;;;;;5114896;28;20028;-87
2021/11/23 13:08:10;;;;;;;1999.90;999.90;;;;;;;;;;5117211;28;20016;-86
2021/11/23 13:10:37;;;;;;;1999.90;999.90;;;;;;;;;;5117084;28;20019;-86
2021/11/23 13:13:05;;;;;;;1999.90;999.90;;;;;;;;;;5116918;28;20023;-85
2021/11/23 13:15:35;;;;;;;1999.90;999.90;;;;;;;;;;5117516;28;20106;-78
2021/11/23 13:18:10;;;;;;;1999.90;999.90;;;;;;;;;;5115759;28;20035;-79
2021/11/23 13:20:39;;;;;;;1999.90;999.90;;;;;;;;;;5115589;28;20475;-78
2021/11/23 13:23:11;;;;;;;1999.90;999.90;;;;;;;;;;5116141;28;20055;-84
2021/11/23 13:25:37;;;;;;;1999.90;999.90;;;;;;;;;;5116763;28;20020;-86
2021/11/23 13:28:03;;;;;;;1999.90;999.90;;;;;;;;;;5115464;28;20409;-84
2021/11/23 13:30:36;;;;;;;1999.90;999.90;;;;;;;;;;5115854;28;20019;-85
2021/11/23 13:33:05;;;;;;;1999.90;999.90;;;;;;;;;;5115482;28;20027;-83
2021/11/23 13:35:31;;;;;;;1999.90;999.90;;;;;;;;;;5116544;28;20043;-84
2021/11/23 13:37:57;;;;;;;1999.90;999.90;;;;;;;;;;5116723;28;20107;-84
2021/11/23 13:40:24;;;;;;;1999.90;999.90;;;;;;;;;;5115701;28;20471;-85
2021/11/23 13:42:51;;;;;;;1999.90;999.90;;;;;;;;;;5115244;28;20040;-86
2021/11/23 13:45:20;;;;;;;1999.90;999.90;;;;;;;;;;5115829;28;20374;-85